Time;durP1;ratioP1;P1;durP2;ratioP2;P2;SDS_P1;SDS_P2;PMS_P1;PMS_P2;Temp;Humidity;BMP_temperature;BMP_pressure;BME280_temperature;BME280_humidity;BME280_pressure;Samples;Min_cycle;Max_cycle;Signal;HPM_P1;HPM_P2
2022/12/20 00:01:55;;;;;;;9.07;7.83;;;;;;;2.74;100.00;97342.53;5005535;28;20202;-65
2022/12/20 00:04:21;;;;;;;9.83;8.03;;;;;;;2.75;100.00;97341.63;5002653;28;20212;-61
2022/12/20 00:06:48;;;;;;;9.17;7.23;;;;;;;2.74;100.00;97342.53;5001579;28;20228;-63
2022/12/20 00:09:14;;;;;;;9.03;8.13;;;;;;;2.73;100.00;97333.84;4997632;28;20279;-62
2022/12/20 00:11:41;;;;;;;11.37;7.80;;;;;;;2.74;100.00;97339.94;4990606;28;20229;-64
2022/12/20 00:14:08;;;;;;;8.60;7.70;;;;;;;2.74;100.00;97338.16;4993339;28;20205;-63
2022/12/20 00:16:37;;;;;;;10.73;7.67;;;;;;;2.77;100.00;97331.94;4994539;28;20216;-61
2022/12/20 00:19:05;;;;;;;9.23;7.57;;;;;;;2.77;100.00;97340.63;4991940;28;20205;-62
2022/12/20 00:21:32;;;;;;;10.43;7.83;;;;;;;2.74;100.00;97340.78;5008572;28;20193;-69
2022/12/20 00:23:59;;;;;;;8.10;7.30;;;;;;;2.76;100.00;97341.56;5008131;28;20193;-64
2022/12/20 00:26:28;;;;;;;9.03;7.63;;;;;;;2.69;100.00;97341.94;4992725;28;20204;-61
2022/12/20 00:28:55;;;;;;;9.90;7.97;;;;;;;2.66;100.00;97335.09;4991617;28;20545;-61
2022/12/20 00:31:23;;;;;;;10.17;8.57;;;;;;;2.71;100.00;97340.09;4994051;28;20672;-61
2022/12/20 00:33:54;;;;;;;14.80;9.17;;;;;;;2.69;100.00;97334.13;4991452;28;20201;-61
2022/12/20 00:36:21;;;;;;;11.20;8.97;;;;;;;2.65;100.00;97336.03;4987774;28;20270;-63
2022/12/20 00:38:49;;;;;;;11.40;8.67;;;;;;;2.59;100.00;97333.72;4991611;28;20213;-65
2022/12/20 00:41:19;;;;;;;10.60;8.90;;;;;;;2.48;100.00;97330.81;4991525;28;20208;-63
2022/12/20 00:43:46;;;;;;;13.70;9.07;;;;;;;2.46;100.00;97330.03;4993778;28;20319;-60
2022/12/20 00:46:14;;;;;;;10.40;8.93;;;;;;;2.37;100.00;97335.75;4996266;28;20231;-61
2022/12/20 00:48:41;;;;;;;11.67;8.90;;;;;;;2.38;100.00;97340.88;4994439;28;20537;-61
2022/12/20 00:51:11;;;;;;;12.70;9.57;;;;;;;2.40;100.00;97346.03;4994491;28;20680;-60
2022/12/20 00:53:38;;;;;;;11.13;9.63;;;;;;;2.38;100.00;97337.41;4994505;28;20220;-61
2022/12/20 00:56:06;;;;;;;9.83;8.70;;;;;;;2.35;100.00;97343.63;4992838;28;20224;-62
2022/12/20 00:58:33;;;;;;;11.20;9.07;;;;;;;2.35;100.00;97327.13;4991692;28;20217;-63
2022/12/20 01:00:59;;;;;;;10.37;8.63;;;;;;;2.30;100.00;97335.16;4992022;28;20193;-65
2022/12/20 01:03:27;;;;;;;10.17;8.70;;;;;;;2.35;100.00;97334.94;4991682;28;20220;-61
2022/12/20 01:05:54;;;;;;;10.80;9.00;;;;;;;2.36;100.00;97334.03;4991779;28;20224;-61
2022/12/20 01:08:23;;;;;;;12.07;8.90;;;;;;;2.36;100.00;97323.59;4991788;28;20216;-61
2022/12/20 01:10:58;;;;;;;10.60;8.97;;;;;;;2.35;100.00;97316.69;4990646;28;20204;-61
2022/12/20 01:13:24;;;;;;;11.83;9.43;;;;;;;2.27;100.00;97324.03;4991749;28;20204;-60
2022/12/20 01:15:51;;;;;;;9.47;8.43;;;;;;;2.24;100.00;97308.53;4989938;28;20220;-62
2022/12/20 01:18:17;;;;;;;11.20;8.87;;;;;;;2.25;100.00;97316.31;4991556;28;20213;-63
2022/12/20 01:20:44;;;;;;;11.17;8.67;;;;;;;2.22;100.00;97307.78;4991522;28;20217;-61
2022/12/20 01:23:10;;;;;;;10.23;8.23;;;;;;;2.19;100.00;97307.94;4991303;28;20518;-63
2022/12/20 01:25:38;;;;;;;8.97;7.40;;;;;;;2.14;100.00;97312.53;4992315;28;20668;-62
2022/12/20 01:28:05;;;;;;;8.83;7.67;;;;;;;2.09;100.00;97315.34;4996060;28;20204;-64
2022/12/20 01:30:32;;;;;;;10.67;8.23;;;;;;;2.07;100.00;97321.56;4996467;28;20216;-63
2022/12/20 01:32:58;;;;;;;8.60;7.20;;;;;;;2.03;100.00;97322.63;4993034;28;20694;-62
2022/12/20 01:35:24;;;;;;;10.70;7.53;;;;;;;2.00;100.00;97323.63;4997020;28;20632;-62
2022/12/20 01:37:51;;;;;;;9.17;7.00;;;;;;;1.95;100.00;97323.00;5002826;28;20205;-62
2022/12/20 01:40:18;;;;;;;6.97;6.17;;;;;;;1.93;100.00;97320.50;5001979;28;20208;-63
2022/12/20 01:42:46;;;;;;;7.43;6.27;;;;;;;1.91;100.00;97314.47;5001223;28;20204;-63
2022/12/20 01:45:15;;;;;;;7.23;6.50;;;;;;;1.88;100.00;97309.41;5009681;28;20208;-61
2022/12/20 01:47:41;;;;;;;8.00;6.40;;;;;;;1.82;100.00;97301.91;5001513;28;20212;-60
2022/12/20 01:50:09;;;;;;;7.03;6.20;;;;;;;1.85;100.00;97311.34;5000923;28;20212;-62
2022/12/20 01:52:37;;;;;;;6.53;5.90;;;;;;;1.77;100.00;97306.47;5000896;28;20850;-62
2022/12/20 01:55:08;;;;;;;6.93;6.23;;;;;;;1.81;100.00;97305.41;5000598;28;20211;-63
2022/12/20 01:57:39;;;;;;;6.80;6.03;;;;;;;1.86;100.00;97303.44;5000662;28;20215;-62
2022/12/20 02:00:09;;;;;;;7.27;5.80;;;;;;;1.80;100.00;97298.53;5001085;28;20220;-62
2022/12/20 02:02:36;;;;;;;6.70;6.00;;;;;;;1.78;100.00;97296.91;5001143;28;20216;-61
2022/12/20 02:05:03;;;;;;;6.73;6.07;;;;;;;1.83;100.00;97298.38;5000219;28;20205;-62
2022/12/20 02:07:31;;;;;;;7.03;6.17;;;;;;;1.74;100.00;97288.38;5001216;28;20204;-61
2022/12/20 02:09:58;;;;;;;6.73;5.70;;;;;;;1.75;100.00;97284.84;5001350;28;20200;-62
2022/12/20 02:12:26;;;;;;;7.40;5.80;;;;;;;1.76;100.00;97283.94;5004363;28;20228;-60
2022/12/20 02:15:05;;;;;;;7.23;6.37;;;;;;;1.79;100.00;97286.41;5004207;28;20228;-60
2022/12/20 02:17:45;;;;;;;7.90;6.43;;;;;;;1.82;100.00;97270.59;5003806;28;20216;-61
2022/12/20 02:20:41;;;;;;;7.17;6.47;;;;;;;1.74;100.00;97285.78;5003923;28;20222;-60
2022/12/20 02:23:21;;;;;;;6.83;6.13;;;;;;;1.77;100.00;97277.78;5003981;28;20635;-62
2022/12/20 02:26:01;;;;;;;8.37;6.50;;;;;;;1.76;100.00;97283.94;5003719;28;20212;-60
2022/12/20 02:28:40;;;;;;;7.03;6.33;;;;;;;1.79;100.00;97283.81;5005161;28;20208;-61
2022/12/20 02:31:14;;;;;;;8.20;6.50;;;;;;;1.84;100.00;97275.75;5004429;28;20208;-63
2022/12/20 02:33:42;;;;;;;8.80;6.57;;;;;;;1.84;100.00;97279.19;5004363;28;20211;-59
2022/12/20 02:36:08;;;;;;;8.50;6.27;;;;;;;1.83;100.00;97284.50;5004115;28;20564;-60
2022/12/20 02:38:36;;;;;;;7.60;6.73;;;;;;;1.77;100.00;97272.59;5005237;28;20220;-60
2022/12/20 02:41:06;;;;;;;7.53;6.40;;;;;;;1.77;100.00;97259.53;5004206;28;20222;-60
2022/12/20 02:46:20;;;;;;;7.40;6.43;;;;;;;1.72;100.00;97256.34;5001694;28;20320;-61
2022/12/20 02:48:47;;;;;;;8.23;6.17;;;;;;;1.68;100.00;97252.19;5006767;28;20219;-64
2022/12/20 02:51:17;;;;;;;9.10;7.00;;;;;;;1.72;100.00;97252.88;5009730;28;20199;-63
2022/12/20 02:53:44;;;;;;;6.33;5.53;;;;;;;1.71;100.00;97245.97;4995922;28;20204;-61
2022/12/20 02:56:14;;;;;;;7.00;6.27;;;;;;;1.74;100.00;97241.44;4993401;28;20687;-59
2022/12/20 02:58:45;;;;;;;6.93;5.97;;;;;;;1.72;100.00;97243.31;4994105;28;20209;-61
2022/12/20 03:01:16;;;;;;;8.17;5.90;;;;;;;1.70;100.00;97237.28;4993696;28;20200;-63
2022/12/20 03:03:44;;;;;;;7.43;5.67;;;;;;;1.67;100.00;97254.84;4994015;28;20216;-61
2022/12/20 03:06:11;;;;;;;7.13;5.43;;;;;;;1.63;100.00;97248.94;4993827;28;20534;-60
2022/12/20 03:08:37;;;;;;;7.10;5.77;;;;;;;1.63;100.00;97235.91;4993755;28;20204;-61
2022/12/20 03:11:04;;;;;;;6.57;5.57;;;;;;;1.67;100.00;97242.66;4993321;28;20209;-61
2022/12/20 03:13:30;;;;;;;6.60;5.80;;;;;;;1.69;100.00;97243.44;4993511;28;20228;-63
2022/12/20 03:15:57;;;;;;;6.80;6.10;;;;;;;1.63;100.00;97233.31;4993359;28;20212;-63
2022/12/20 03:18:23;;;;;;;7.53;6.03;;;;;;;1.63;100.00;97229.88;4993264;28;20624;-60
2022/12/20 03:20:51;;;;;;;7.47;6.23;;;;;;;1.63;100.00;97219.44;4993433;28;20208;-62
2022/12/20 03:23:17;;;;;;;7.47;6.60;;;;;;;1.64;100.00;97221.13;4993453;28;20200;-60
2022/12/20 03:25:44;;;;;;;9.87;7.60;;;;;;;1.63;100.00;97212.44;4992595;28;20210;-61
2022/12/20 03:28:10;;;;;;;8.20;6.70;;;;;;;1.67;100.00;97207.94;4993003;28;20893;-59
2022/12/20 03:30:37;;;;;;;7.53;6.50;;;;;;;1.60;100.00;97201.31;4993249;28;20220;-60
2022/12/20 03:33:04;;;;;;;6.57;5.97;;;;;;;1.57;100.00;97202.31;4993372;28;20231;-62
2022/12/20 03:35:30;;;;;;;7.23;6.33;;;;;;;1.61;100.00;97209.09;4993201;28;20219;-60
2022/12/20 03:37:58;;;;;;;8.00;6.33;;;;;;;1.59;100.00;97217.91;4993273;28;20213;-63
2022/12/20 03:40:24;;;;;;;7.47;6.50;;;;;;;1.61;100.00;97219.50;4992679;28;20208;-62
2022/12/20 03:42:51;;;;;;;7.00;6.27;;;;;;;1.67;100.00;97216.59;4994581;28;20205;-62
2022/12/20 03:45:18;;;;;;;9.90;6.47;;;;;;;1.68;100.00;97215.69;5002354;28;20651;-61
2022/12/20 03:47:44;;;;;;;7.83;6.17;;;;;;;1.66;100.00;97222.75;5002596;28;20648;-64
2022/12/20 03:50:11;;;;;;;9.07;7.10;;;;;;;1.65;100.00;97210.63;5002591;28;20222;-62
2022/12/20 03:52:38;;;;;;;11.47;7.90;;;;;;;1.64;100.00;97210.69;5002755;28;20265;-61
2022/12/20 03:55:08;;;;;;;10.10;7.50;;;;;;;1.66;100.00;97211.47;5002082;28;20214;-60
2022/12/20 03:57:34;;;;;;;10.23;8.33;;;;;;;1.59;100.00;97217.91;5002293;28;20655;-60
2022/12/20 04:00:01;;;;;;;11.97;8.00;;;;;;;1.64;100.00;97216.75;5002109;28;20213;-60
2022/12/20 04:02:28;;;;;;;10.57;7.80;;;;;;;1.63;100.00;97212.44;5002152;28;20206;-62
2022/12/20 04:04:54;;;;;;;10.87;8.23;;;;;;;1.62;100.00;97200.34;5002094;28;20237;-62
2022/12/20 04:07:21;;;;;;;8.50;6.63;;;;;;;1.59;100.00;97208.34;5002496;28;20211;-61
2022/12/20 04:09:47;;;;;;;8.73;7.40;;;;;;;1.54;100.00;97212.91;5001738;28;20213;-61
2022/12/20 04:12:15;;;;;;;8.43;7.17;;;;;;;1.55;100.00;97213.75;5002338;28;20239;-62
2022/12/20 04:14:41;;;;;;;10.07;7.83;;;;;;;1.47;100.00;97209.75;5003895;28;20206;-61
2022/12/20 04:17:08;;;;;;;9.90;7.67;;;;;;;1.55;100.00;97212.00;5002699;28;20629;-62
2022/12/20 04:19:34;;;;;;;8.37;7.47;;;;;;;1.58;100.00;97209.25;5003168;28;20211;-62
2022/12/20 04:22:01;;;;;;;9.40;7.30;;;;;;;1.58;100.00;97204.03;5002939;28;20218;-59
2022/12/20 04:24:27;;;;;;;9.90;7.80;;;;;;;1.52;100.00;97196.50;5002523;28;20200;-60
2022/12/20 04:26:54;;;;;;;9.03;7.07;;;;;;;1.52;100.00;97198.28;5002903;28;20539;-60
2022/12/20 04:29:22;;;;;;;7.47;6.70;;;;;;;1.50;100.00;97203.53;5002904;28;20210;-61
2022/12/20 04:31:48;;;;;;;8.27;6.67;;;;;;;1.53;100.00;97208.59;5002653;28;20209;-60
2022/12/20 04:34:14;;;;;;;9.00;6.53;;;;;;;1.53;100.00;97216.41;5001582;28;20224;-61
2022/12/20 04:36:41;;;;;;;6.57;5.60;;;;;;;1.59;100.00;97208.34;5001759;28;20220;-60
2022/12/20 04:39:07;;;;;;;5.80;5.00;;;;;;;1.59;100.00;97200.50;5001452;28;20734;-60
2022/12/20 04:41:34;;;;;;;7.87;5.70;;;;;;;1.58;100.00;97208.38;5001706;28;20540;-61
2022/12/20 04:44:01;;;;;;;6.80;5.50;;;;;;;1.52;100.00;97199.94;4995594;28;20246;-60
2022/12/20 04:46:28;;;;;;;5.77;4.80;;;;;;;1.55;100.00;97204.19;4991994;28;20200;-59
2022/12/20 04:48:55;;;;;;;6.63;5.40;;;;;;;1.58;100.00;97218.81;4992040;28;20204;-61
2022/12/20 04:51:21;;;;;;;6.87;5.30;;;;;;;1.60;100.00;97214.34;4993401;28;20204;-61
2022/12/20 04:53:47;;;;;;;6.90;5.40;;;;;;;1.62;100.00;97218.59;4993663;28;20236;-63
2022/12/20 04:56:15;;;;;;;6.67;5.43;;;;;;;1.66;100.00;97206.25;4993483;28;20611;-62
2022/12/20 04:58:42;;;;;;;6.13;5.53;;;;;;;1.64;100.00;97208.09;4994061;28;20200;-60
2022/12/20 05:01:09;;;;;;;6.27;5.40;;;;;;;1.67;100.00;97200.09;4994039;28;20207;-60
2022/12/20 05:03:37;;;;;;;5.67;4.80;;;;;;;1.59;100.00;97200.50;4993286;28;20205;-60
2022/12/20 05:06:03;;;;;;;6.43;5.27;;;;;;;1.58;100.00;97196.19;4992134;28;20212;-60
2022/12/20 05:08:30;;;;;;;7.17;5.00;;;;;;;1.58;100.00;97197.97;4991792;28;20212;-61
2022/12/20 05:10:56;;;;;;;9.53;5.27;;;;;;;1.55;100.00;97188.53;4991442;28;20597;-61
2022/12/20 05:13:23;;;;;;;6.60;5.43;;;;;;;1.49;100.00;97194.03;4991819;28;20221;-62
2022/12/20 05:15:51;;;;;;;6.10;5.50;;;;;;;1.54;100.00;97192.06;4991840;28;20216;-63
2022/12/20 05:18:17;;;;;;;6.83;5.30;;;;;;;1.43;100.00;97192.56;4991917;28;20289;-64
2022/12/20 05:20:45;;;;;;;5.47;4.93;;;;;;;1.44;100.00;97196.03;5005561;28;20204;-63
2022/12/20 05:28:40;;;;;;;5.97;5.47;;;;;;;1.51;100.00;97200.03;4991643;28;20207;-65
2022/12/20 05:31:07;;;;;;;5.90;5.30;;;;;;;1.46;100.00;97186.38;4991580;28;20217;-62
2022/12/20 05:33:34;;;;;;;9.47;7.00;;;;;;;1.56;100.00;97184.19;4991560;28;20228;-61
2022/12/20 05:36:02;;;;;;;8.90;7.10;;;;;;;1.58;100.00;97183.16;4991437;28;20584;-63
2022/12/20 05:38:28;;;;;;;8.00;6.90;;;;;;;1.52;100.00;97178.28;4991359;28;20209;-61
2022/12/20 05:40:55;;;;;;;7.83;6.87;;;;;;;1.47;100.00;97159.41;4991037;28;20212;-61
2022/12/20 05:43:21;;;;;;;9.60;7.17;;;;;;;1.55;100.00;97167.69;4991797;28;20248;-65
2022/12/20 05:45:48;;;;;;;8.33;7.27;;;;;;;1.52;100.00;97157.41;4993942;28;20212;-60
2022/12/20 05:48:15;;;;;;;8.33;6.90;;;;;;;1.53;100.00;97164.28;4995428;28;20215;-60
2022/12/20 05:50:42;;;;;;;9.47;6.90;;;;;;;1.50;100.00;97159.25;4995062;28;20213;-64
2022/12/20 05:53:11;;;;;;;8.60;7.20;;;;;;;1.54;100.00;97159.94;4995194;28;20215;-62
2022/12/20 05:55:39;;;;;;;8.10;6.57;;;;;;;1.55;100.00;97159.88;4994554;28;20215;-59
2022/12/20 05:58:06;;;;;;;8.13;6.63;;;;;;;1.56;100.00;97153.72;4995194;28;20300;-60
2022/12/20 06:00:32;;;;;;;6.90;6.20;;;;;;;1.55;100.00;97162.47;4994535;28;20700;-60
2022/12/20 06:02:59;;;;;;;8.47;6.87;;;;;;;1.62;100.00;97173.44;4995021;28;20196;-61
2022/12/20 06:05:25;;;;;;;7.23;6.27;;;;;;;1.59;100.00;97169.22;5002077;28;20204;-62
2022/12/20 06:07:52;;;;;;;8.63;6.97;;;;;;;1.61;100.00;97169.13;5003577;28;20716;-57
2022/12/20 06:10:20;;;;;;;10.57;7.50;;;;;;;1.61;100.00;97169.13;4994890;28;20216;-60
2022/12/20 06:12:46;;;;;;;8.67;6.60;;;;;;;1.59;100.00;97169.22;4995204;28;20217;-60
2022/12/20 06:15:15;;;;;;;11.27;7.00;;;;;;;1.59;100.00;97168.38;4994019;28;20207;-59
2022/12/20 06:17:41;;;;;;;9.33;7.27;;;;;;;1.53;100.00;97169.50;4995123;28;20279;-62
2022/12/20 06:20:10;;;;;;;9.33;7.03;;;;;;;1.52;100.00;97160.84;4995757;28;20616;-61
2022/12/20 06:22:36;;;;;;;9.53;7.50;;;;;;;1.57;100.00;97160.63;4995296;28;20212;-60
2022/12/20 06:25:03;;;;;;;9.53;8.40;;;;;;;1.63;100.00;97162.91;4994894;28;20208;-59
2022/12/20 06:27:31;;;;;;;11.33;8.50;;;;;;;1.65;100.00;97162.84;4995180;28;20532;-60
2022/12/20 06:29:58;;;;;;;9.23;8.07;;;;;;;1.54;100.00;97158.16;4995104;28;20204;-59
2022/12/20 06:32:24;;;;;;;9.43;7.97;;;;;;;1.54;100.00;97159.94;4994944;28;20721;-61
2022/12/20 06:34:51;;;;;;;11.27;8.33;;;;;;;1.52;100.00;97152.22;4994844;28;20227;-60
2022/12/20 06:37:17;;;;;;;9.30;7.50;;;;;;;1.50;100.00;97159.25;4995093;28;20208;-59
2022/12/20 06:39:44;;;;;;;7.10;6.13;;;;;;;1.51;100.00;97155.72;4995002;28;20212;-59
2022/12/20 06:42:10;;;;;;;7.53;6.63;;;;;;;1.55;100.00;97162.47;5000425;28;20212;-61
2022/12/20 06:44:38;;;;;;;9.33;6.63;;;;;;;1.52;100.00;97157.41;4998036;28;20236;-60
2022/12/20 06:47:05;;;;;;;7.53;6.70;;;;;;;1.50;100.00;97161.84;4997505;28;20207;-59
2022/12/20 06:49:31;;;;;;;7.47;6.53;;;;;;;1.50;100.00;97159.25;4998571;28;20220;-60
2022/12/20 06:51:58;;;;;;;10.77;7.37;;;;;;;1.50;100.00;97164.44;4999429;28;20541;-61
2022/12/20 06:54:24;;;;;;;15.60;7.80;;;;;;;1.52;100.00;97158.22;4998281;28;20232;-62
2022/12/20 06:56:51;;;;;;;9.90;7.23;;;;;;;1.60;100.00;97164.84;4995893;28;20211;-59
2022/12/20 06:59:17;;;;;;;12.30;7.27;;;;;;;1.59;100.00;97166.63;4994422;28;20560;-60
2022/12/20 07:01:45;;;;;;;10.83;7.63;;;;;;;1.62;100.00;97168.22;4994207;28;20200;-59
2022/12/20 07:04:11;;;;;;;9.43;7.40;;;;;;;1.63;100.00;97162.09;4994809;28;20200;-60
2022/12/20 07:06:38;;;;;;;8.67;7.27;;;;;;;1.61;100.00;97162.16;4993818;28;20217;-59
2022/12/20 07:09:05;;;;;;;12.10;8.00;;;;;;;1.64;100.00;97162.00;4994800;28;20226;-60
2022/12/20 07:11:31;;;;;;;9.83;7.40;;;;;;;1.67;100.00;97151.44;4994014;28;20232;-60
2022/12/20 07:13:58;;;;;;;10.33;8.10;;;;;;;1.64;100.00;97148.97;4993522;28;20239;-59
2022/12/20 07:16:25;;;;;;;13.50;7.87;;;;;;;1.66;100.00;97147.16;4993975;28;20202;-59
2022/12/20 07:18:54;;;;;;;11.80;7.97;;;;;;;1.64;100.00;97153.34;4993658;28;20644;-60
2022/12/20 07:21:21;;;;;;;11.90;8.50;;;;;;;1.71;100.00;97152.97;4993503;28;20223;-60
2022/12/20 07:23:48;;;;;;;8.37;7.57;;;;;;;1.68;100.00;97149.66;4994077;28;20222;-62
2022/12/20 07:26:15;;;;;;;10.83;8.17;;;;;;;1.70;100.00;97138.22;4992961;28;20215;-62
2022/12/20 07:28:42;;;;;;;8.83;7.90;;;;;;;1.76;100.00;97134.50;4993708;28;20216;-59
2022/12/20 07:31:09;;;;;;;15.77;11.80;;;;;;;1.84;100.00;97137.56;4993323;28;20236;-59
2022/12/20 07:33:36;;;;;;;14.43;11.00;;;;;;;1.85;100.00;97153.09;4992996;28;20650;-61
2022/12/20 07:36:05;;;;;;;10.50;8.57;;;;;;;1.90;100.00;97153.72;4993545;28;20526;-60
2022/12/20 07:38:32;;;;;;;10.40;8.07;;;;;;;1.93;100.00;97152.72;4993889;28;20215;-60
2022/12/20 07:40:59;;;;;;;9.33;8.13;;;;;;;2.00;100.00;97154.09;4993236;28;20208;-60
2022/12/20 07:43:25;;;;;;;8.83;7.50;;;;;;;2.03;100.00;97147.88;4993412;28;20268;-60
2022/12/20 07:45:54;;;;;;;11.60;8.47;;;;;;;2.06;100.00;97147.72;4999929;28;20649;-63
2022/12/20 07:48:21;;;;;;;12.17;8.47;;;;;;;2.06;100.00;97163.38;5006546;28;20299;-62
2022/12/20 07:50:47;;;;;;;10.70;8.00;;;;;;;2.07;100.00;97149.41;5013132;28;20281;-61
2022/12/20 07:53:16;;;;;;;12.33;8.67;;;;;;;2.10;100.00;97151.84;5014260;28;20235;-61
2022/12/20 07:55:43;;;;;;;9.57;7.77;;;;;;;2.17;100.00;97148.00;4998557;28;20205;-62
2022/12/20 07:58:10;;;;;;;10.80;7.90;;;;;;;2.24;100.00;97149.38;4994799;28;20201;-61
2022/12/20 08:00:37;;;;;;;10.03;8.17;;;;;;;2.27;100.00;97147.44;4993786;28;20208;-61
2022/12/20 08:03:06;;;;;;;9.90;7.47;;;;;;;2.27;100.00;97141.38;4993367;28;20225;-61
2022/12/20 08:05:33;;;;;;;7.57;6.83;;;;;;;2.31;100.00;97143.75;4992980;28;20519;-59
2022/12/20 08:08:02;;;;;;;8.67;7.43;;;;;;;2.38;100.00;97146.88;4992488;28;20650;-60
2022/12/20 08:10:31;;;;;;;9.37;7.67;;;;;;;2.41;100.00;97141.50;4992929;28;20299;-60
2022/12/20 08:12:58;;;;;;;10.23;8.70;;;;;;;2.49;100.00;97134.97;4992731;28;20212;-63
2022/12/20 08:15:24;;;;;;;11.07;9.87;;;;;;;2.55;100.00;97135.56;4993289;28;20785;-60
2022/12/20 08:17:51;;;;;;;12.90;9.97;;;;;;;2.63;100.00;97142.03;4993192;28;20197;-59
2022/12/20 08:20:19;;;;;;;17.23;11.47;;;;;;;2.69;100.00;97139.13;4993017;28;20208;-60
2022/12/20 08:22:46;;;;;;;13.37;10.63;;;;;;;2.75;100.00;97133.56;4993087;28;20644;-61
2022/12/20 08:25:12;;;;;;;12.67;10.13;;;;;;;2.80;100.00;97136.75;4993320;28;20209;-60
2022/12/20 08:27:40;;;;;;;11.27;9.63;;;;;;;2.87;100.00;97116.38;4993195;28;20201;-61
2022/12/20 08:30:09;;;;;;;10.90;8.40;;;;;;;2.92;100.00;97124.78;4992736;28;20205;-62
2022/12/20 08:32:36;;;;;;;11.83;8.60;;;;;;;2.87;100.00;97132.88;4992777;28;20213;-59
2022/12/20 08:35:03;;;;;;;11.37;9.40;;;;;;;2.94;100.00;97121.16;4992838;28;20232;-59
2022/12/20 08:37:30;;;;;;;11.47;8.90;;;;;;;2.95;100.00;97125.47;4992738;28;20197;-59
2022/12/20 08:39:57;;;;;;;12.60;9.10;;;;;;;2.98;100.00;97122.69;4992378;28;20209;-63
2022/12/20 08:42:23;;;;;;;9.63;8.63;;;;;;;3.00;100.00;97128.69;4992829;28;20205;-61
2022/12/20 08:44:51;;;;;;;13.17;9.17;;;;;;;3.04;100.00;97121.50;5000553;28;20675;-59
2022/12/20 08:47:19;;;;;;;9.87;7.93;;;;;;;3.09;100.00;97127.31;5002617;28;20303;-60
2022/12/20 08:49:46;;;;;;;9.67;8.40;;;;;;;3.16;100.00;97133.03;5001685;28;20216;-61
2022/12/20 08:52:12;;;;;;;12.53;8.77;;;;;;;3.20;100.00;97134.53;5003223;28;20204;-59
2022/12/20 08:54:38;;;;;;;8.50;7.70;;;;;;;3.26;100.00;97131.59;5002369;28;20229;-60
2022/12/20 08:57:05;;;;;;;8.63;7.53;;;;;;;3.29;100.00;97136.66;5002121;28;20222;-59
2022/12/20 08:59:31;;;;;;;9.03;8.03;;;;;;;3.36;100.00;97130.16;5001962;28;20212;-59
2022/12/20 09:01:59;;;;;;;18.57;10.87;;;;;;;3.41;100.00;97139.41;5002280;28;20255;-62
2022/12/20 09:04:26;;;;;;;17.67;9.40;;;;;;;3.54;100.00;97139.56;5001783;28;20212;-60
2022/12/20 09:06:52;;;;;;;21.50;9.80;;;;;;;3.55;100.00;97136.00;5001331;28;20637;-62
2022/12/20 09:09:19;;;;;;;18.40;9.37;;;;;;;3.69;100.00;97132.56;5001492;28;20535;-59
2022/12/20 09:11:45;;;;;;;17.40;9.93;;;;;;;3.74;100.00;97131.41;5002147;28;20216;-59
2022/12/20 09:14:12;;;;;;;15.93;10.43;;;;;;;3.78;100.00;97130.28;5002026;28;20299;-63
2022/12/20 09:16:38;;;;;;;11.23;9.27;;;;;;;3.81;100.00;97129.25;5001687;28;20546;-59
2022/12/20 09:19:06;;;;;;;14.30;10.37;;;;;;;3.84;100.00;97135.16;5003399;28;20218;-62
2022/12/20 09:21:33;;;;;;;16.83;10.53;;;;;;;3.84;100.00;97127.31;5005436;28;20644;-59
2022/12/20 09:23:59;;;;;;;12.67;10.23;;;;;;;3.86;100.00;97133.28;5005517;28;20208;-62
2022/12/20 09:26:26;;;;;;;15.27;9.57;;;;;;;3.88;100.00;97139.28;5005256;28;20220;-59
2022/12/20 09:28:52;;;;;;;14.07;10.93;;;;;;;3.94;100.00;97133.69;5005825;28;20201;-59
2022/12/20 09:31:20;;;;;;;18.63;11.37;;;;;;;3.97;100.00;97136.09;5005605;28;20290;-60
2022/12/20 09:33:47;;;;;;;14.53;10.63;;;;;;;3.95;100.00;97135.38;5005759;28;20228;-63
2022/12/20 09:36:17;;;;;;;13.27;9.80;;;;;;;4.01;100.00;97136.75;5005562;28;20217;-59
2022/12/20 09:38:44;;;;;;;14.13;9.87;;;;;;;3.99;100.00;97130.78;5005477;28;20213;-61
2022/12/20 09:41:20;;;;;;;12.57;10.47;;;;;;;4.05;100.00;97125.19;5005467;28;20281;-63
2022/12/20 09:43:46;;;;;;;15.00;11.33;;;;;;;4.05;100.00;97121.72;5000837;28;20246;-63
2022/12/20 09:46:15;;;;;;;14.87;10.77;;;;;;;4.12;100.00;97109.97;4995689;28;20201;-60
2022/12/20 09:48:42;;;;;;;13.13;10.70;;;;;;;4.17;100.00;97123.63;4995699;28;20201;-59
2022/12/20 09:51:18;;;;;;;12.37;10.43;;;;;;;4.19;100.00;97113.88;4995711;28;20205;-63
2022/12/20 09:53:53;;;;;;;12.93;9.80;;;;;;;4.25;100.00;97113.53;4995518;28;20197;-62
2022/12/20 09:56:24;;;;;;;13.90;10.17;;;;;;;4.34;100.00;97112.97;4995598;28;20224;-61
2022/12/20 09:58:59;;;;;;;10.80;9.70;;;;;;;4.40;100.00;97109.97;4995385;28;20193;-60
2022/12/20 10:01:28;;;;;;;10.87;9.77;;;;;;;4.45;100.00;97107.91;4995869;28;20213;-63
2022/12/20 10:03:57;;;;;;;12.43;9.87;;;;;;;4.52;100.00;97103.97;4995111;28;20570;-59
2022/12/20 10:06:32;;;;;;;10.60;8.93;;;;;;;4.57;100.00;97096.66;4995044;28;20220;-60
2022/12/20 10:09:01;;;;;;;15.50;10.07;;;;;;;4.62;100.00;97094.63;4995225;28;20200;-60
2022/12/20 10:11:43;;;;;;;10.90;8.70;;;;;;;4.67;100.00;97086.47;4995293;28;20224;-62
2022/12/20 10:14:20;;;;;;;13.60;10.30;;;;;;;4.80;100.00;97082.13;4995342;28;20221;-63
2022/12/20 10:16:50;;;;;;;14.20;10.07;;;;;;;4.92;100.00;97065.66;4996419;28;20209;-61
2022/12/20 10:19:30;;;;;;;15.03;10.13;;;;;;;5.05;100.00;97065.69;5006689;28;20211;-63
2022/12/20 10:22:05;;;;;;;14.70;11.27;;;;;;;5.08;100.00;97049.75;5014071;28;20201;-64
2022/12/20 10:24:33;;;;;;;15.93;11.57;;;;;;;5.44;100.00;97052.59;5011826;28;20285;-66
2022/12/20 10:27:04;;;;;;;14.07;11.07;;;;;;;5.83;100.00;97047.31;5011327;28;20253;-65
2022/12/20 10:29:31;;;;;;;15.63;12.37;;;;;;;6.06;100.00;97050.19;5010067;28;20236;-63
2022/12/20 10:32:00;;;;;;;15.17;12.17;;;;;;;6.32;100.00;97044.78;5012530;28;20201;-61
2022/12/20 10:34:26;;;;;;;14.77;12.20;;;;;;;6.57;100.00;97030.78;5004003;28;20237;-61
2022/12/20 10:37:11;;;;;;;17.43;12.27;;;;;;;6.93;100.00;97029.91;4995060;28;20216;-59
2022/12/20 10:39:41;;;;;;;17.00;12.83;;;;;;;6.98;100.00;97025.16;4994342;28;20203;-61
2022/12/20 10:42:24;;;;;;;17.83;12.87;;;;;;;7.15;100.00;97016.88;4994865;28;20267;-61
2022/12/20 10:44:51;;;;;;;15.20;12.20;;;;;;;7.17;100.00;97003.63;5002063;28;20224;-63
2022/12/20 10:47:25;;;;;;;17.40;11.80;;;;;;;7.00;100.00;96987.28;5004219;28;20213;-62
2022/12/20 10:49:51;;;;;;;14.83;11.80;;;;;;;7.11;100.00;96988.28;5004128;28;20208;-61
2022/12/20 10:52:19;;;;;;;13.37;11.50;;;;;;;7.08;100.00;96983.25;5003348;28;20853;-62
2022/12/20 10:54:46;;;;;;;13.13;11.47;;;;;;;7.27;100.00;96978.28;5003442;28;20216;-60
2022/12/20 10:57:18;;;;;;;14.50;11.33;;;;;;;7.30;100.00;96962.28;5003616;28;20213;-62
2022/12/20 10:59:48;;;;;;;13.73;11.23;;;;;;;7.34;100.00;96963.72;5003557;28;20274;-61
2022/12/20 11:02:28;;;;;;;12.20;10.63;;;;;;;7.28;100.00;96972.94;5004225;28;20621;-60
2022/12/20 11:04:59;;;;;;;12.90;10.43;;;;;;;7.30;100.00;96985.94;5003093;28;20197;-61
2022/12/20 11:07:30;;;;;;;13.20;10.73;;;;;;;7.27;100.00;96976.50;5003301;28;20217;-64
2022/12/20 11:09:57;;;;;;;14.10;11.10;;;;;;;7.32;100.00;96976.16;5002947;28;20632;-63
2022/12/20 11:12:24;;;;;;;13.57;11.03;;;;;;;7.27;100.00;96973.03;5003615;28;20223;-60
2022/12/20 11:15:08;;;;;;;15.57;11.13;;;;;;;7.18;100.00;96961.44;5003471;28;20232;-60
2022/12/20 11:17:37;;;;;;;16.37;11.47;;;;;;;7.14;100.00;96951.25;5003278;28;20208;-60
2022/12/20 11:20:25;;;;;;;12.13;10.33;;;;;;;7.06;100.00;96954.44;5003803;28;20212;-61
2022/12/20 11:22:59;;;;;;;13.17;10.37;;;;;;;7.08;100.00;96951.72;5003761;28;20215;-60
2022/12/20 11:25:35;;;;;;;13.63;10.40;;;;;;;7.01;100.00;96952.13;5002837;28;20205;-63
2022/12/20 11:28:20;;;;;;;12.40;10.80;;;;;;;7.06;100.00;96945.72;5003676;28;20204;-60
2022/12/20 11:30:54;;;;;;;14.70;11.03;;;;;;;7.00;100.00;96933.88;5002647;28;20653;-62
2022/12/20 11:33:36;;;;;;;13.03;10.37;;;;;;;6.97;100.00;96929.69;5003143;28;20201;-60
2022/12/20 11:36:05;;;;;;;13.30;10.77;;;;;;;6.95;100.00;96928.94;5002718;28;20893;-62
2022/12/20 11:38:41;;;;;;;15.00;10.97;;;;;;;6.92;100.00;96933.59;5002804;28;20197;-60
2022/12/20 11:41:19;;;;;;;13.93;10.73;;;;;;;6.95;100.00;96925.47;5002815;28;20208;-62